Time;durP1;ratioP1;P1;durP2;ratioP2;P2;SDS_P1;SDS_P2;PMS_P1;PMS_P2;Temp;Humidity;BMP_temperature;BMP_pressure;BME280_temperature;BME280_humidity;BME280_pressure;Samples;Min_cycle;Max_cycle;Signal;HPM_P1;HPM_P2
2021/09/12 00:00:46;;;;;;;1999.90;999.90;;;19.70;99.90;;;;;;5023769;28;20408;-86
2021/09/12 00:03:12;;;;;;;1999.90;999.90;;;19.70;99.90;;;;;;5005525;28;20403;-86
2021/09/12 00:05:41;;;;;;;1999.90;999.90;;;19.70;99.90;;;;;;5024206;28;20434;-86
2021/09/12 00:08:13;;;;;;;1999.90;999.90;;;19.70;99.90;;;;;;5005163;28;20184;-86
2021/09/12 00:10:45;;;;;;;1999.90;999.90;;;19.70;99.90;;;;;;5005229;28;20427;-86
2021/09/12 00:13:29;;;;;;;1999.90;999.90;;;19.70;99.90;;;;;;5023216;28;20426;-86
2021/09/12 00:16:03;;;;;;;1999.90;999.90;;;19.70;99.90;;;;;;5023250;28;20433;-86
2021/09/12 00:18:38;;;;;;;1999.90;999.90;;;19.60;99.90;;;;;;5006409;28;20842;-86
2021/09/12 00:21:19;;;;;;;1999.90;999.90;;;19.60;99.90;;;;;;5006753;28;20413;-86
2021/09/12 00:23:49;;;;;;;1999.90;999.90;;;19.60;99.90;;;;;;5006445;28;20409;-86
2021/09/12 00:26:22;;;;;;;1999.90;999.90;;;19.60;99.90;;;;;;5022815;28;20508;-86
2021/09/12 00:29:16;;;;;;;1999.90;999.90;;;19.60;99.90;;;;;;5023812;28;20387;-86
2021/09/12 00:31:48;;;;;;;1999.90;999.90;;;19.60;99.90;;;;;;5025059;28;20806;-86
2021/09/12 00:34:15;;;;;;;1999.90;999.90;;;19.60;99.90;;;;;;5006094;28;20409;-86
2021/09/12 00:36:41;;;;;;;1999.90;999.90;;;19.60;99.90;;;;;;5005531;28;20460;-86
2021/09/12 00:39:13;;;;;;;1999.90;999.90;;;19.60;99.90;;;;;;5023109;28;20748;-86
2021/09/12 00:41:49;;;;;;;1999.90;999.90;;;19.60;99.90;;;;;;5005467;28;20416;-86
2021/09/12 00:44:32;;;;;;;1999.90;999.90;;;19.60;99.90;;;;;;5004043;28;20417;-86
2021/09/12 00:47:27;;;;;;;1999.90;999.90;;;19.60;99.90;;;;;;5024206;28;20978;-86
2021/09/12 00:49:56;;;;;;;1999.90;999.90;;;19.60;99.90;;;;;;5023945;28;20528;-86
2021/09/12 00:52:33;;;;;;;1999.90;999.90;;;19.50;99.90;;;;;;5025510;28;20402;-86
2021/09/12 00:55:28;;;;;;;;;;;;;;;;;;;;;
2021/09/12 00:58:02;;;;;;;1999.90;999.90;;;19.60;99.90;;;;;;5028180;28;20460;-86
2021/09/12 01:00:31;;;;;;;1999.90;999.90;;;19.50;99.90;;;;;;5028322;28;20406;-86
2021/09/12 01:03:00;;;;;;;1999.90;999.90;;;19.50;99.90;;;;;;5028284;28;20413;-86
2021/09/12 01:05:26;;;;;;;1999.90;999.90;;;19.50;99.90;;;;;;5028058;28;20420;-86
2021/09/12 01:07:55;;;;;;;1999.90;999.90;;;19.50;99.90;;;;;;5009763;28;20532;-86
2021/09/12 01:10:30;;;;;;;1999.90;999.90;;;19.50;99.90;;;;;;5002721;28;20422;-86
2021/09/12 01:12:58;;;;;;;1999.90;999.90;;;19.50;99.90;;;;;;5000703;28;20423;-86
2021/09/12 01:15:45;;;;;;;1999.90;999.90;;;19.50;99.90;;;;;;5017094;28;20446;-86
2021/09/12 01:18:18;;;;;;;1999.90;999.90;;;19.50;99.90;;;;;;4986063;28;20414;-86
2021/09/12 01:20:47;;;;;;;1999.90;999.90;;;19.50;99.90;;;;;;5000114;28;20786;-86
2021/09/12 01:23:44;;;;;;;1999.90;999.90;;;19.50;99.90;;;;;;4999432;28;20420;-86
2021/09/12 01:26:26;;;;;;;1999.90;999.90;;;19.40;99.90;;;;;;4985435;28;20442;-86
2021/09/12 01:28:58;;;;;;;1999.90;999.90;;;19.40;99.90;;;;;;4999888;28;20414;-86
2021/09/12 01:32:13;;;;;;;1999.90;999.90;;;19.40;99.90;;;;;;5018466;28;20476;-86
2021/09/12 01:34:39;;;;;;;1999.90;999.90;;;19.30;99.90;;;;;;4925108;28;20429;-86
2021/09/12 01:37:05;;;;;;;1999.90;999.90;;;19.30;99.90;;;;;;4999954;28;20441;-86
2021/09/12 01:39:37;;;;;;;1999.90;999.90;;;19.20;99.90;;;;;;5000422;28;20174;-86
2021/09/12 01:42:03;;;;;;;1999.90;999.90;;;19.20;99.90;;;;;;5001859;28;20418;-86
2021/09/12 01:44:29;;;;;;;1999.90;999.90;;;19.20;99.90;;;;;;5001745;28;20404;-86
2021/09/12 01:46:57;;;;;;;1999.90;999.90;;;19.10;99.90;;;;;;5001227;28;20793;-86
2021/09/12 01:49:23;;;;;;;1999.90;999.90;;;19.10;99.90;;;;;;5073611;22;20873;-86
2021/09/12 01:51:50;;;;;;;1999.90;999.90;;;19.00;99.90;;;;;;5021739;28;20991;-86
2021/09/12 01:54:16;;;;;;;1999.90;999.90;;;19.00;99.90;;;;;;5038569;28;20442;-83
2021/09/12 01:56:43;;;;;;;1999.90;999.90;;;19.00;99.90;;;;;;5047868;28;20438;-83
2021/09/12 01:59:09;;;;;;;1999.90;999.90;;;19.00;99.90;;;;;;5041449;28;20187;-83
2021/09/12 02:01:34;;;;;;;1999.90;999.90;;;19.00;99.90;;;;;;5059407;28;20395;-83
2021/09/12 02:04:01;;;;;;;1999.90;999.90;;;18.90;99.90;;;;;;5058956;28;20160;-84
2021/09/12 02:06:26;;;;;;;1999.90;999.90;;;18.90;99.90;;;;;;5040786;28;20191;-83
2021/09/12 02:08:52;;;;;;;1999.90;999.90;;;18.80;99.90;;;;;;5041137;28;20411;-83
2021/09/12 02:11:18;;;;;;;1999.90;999.90;;;18.80;99.90;;;;;;5041252;28;20169;-83
2021/09/12 02:13:44;;;;;;;1999.90;999.90;;;18.80;99.90;;;;;;5041116;28;20164;-83
2021/09/12 02:16:10;;;;;;;1999.90;999.90;;;18.70;99.90;;;;;;5058743;28;20451;-84
2021/09/12 02:18:36;;;;;;;1999.90;999.90;;;18.70;99.90;;;;;;5041595;28;20439;-84
2021/09/12 02:21:02;;;;;;;1999.90;999.90;;;18.70;99.90;;;;;;5041726;28;20418;-83
2021/09/12 02:23:31;;;;;;;1999.90;999.90;;;18.70;99.90;;;;;;5041844;28;20168;-83
2021/09/12 02:25:57;;;;;;;1999.90;999.90;;;18.70;99.90;;;;;;5041569;28;20208;-84
2021/09/12 02:28:22;;;;;;;1999.90;999.90;;;18.70;99.90;;;;;;5041461;28;20408;-84
2021/09/12 02:30:48;;;;;;;1999.90;999.90;;;18.60;99.90;;;;;;5059705;28;20172;-84
2021/09/12 02:33:14;;;;;;;1999.90;999.90;;;18.60;99.90;;;;;;5059416;28;20168;-84
2021/09/12 02:35:39;;;;;;;1999.90;999.90;;;18.60;99.90;;;;;;5060248;28;20246;-84
2021/09/12 02:38:05;;;;;;;1999.90;999.90;;;18.60;99.90;;;;;;5041074;28;20251;-84
2021/09/12 02:40:30;;;;;;;1999.90;999.90;;;18.60;99.90;;;;;;5041323;28;20635;-84
2021/09/12 02:42:56;;;;;;;1999.90;999.90;;;18.60;99.90;;;;;;5058981;28;20164;-83
2021/09/12 02:45:22;;;;;;;1999.90;999.90;;;18.60;99.90;;;;;;5059055;28;20168;-83
2021/09/12 02:47:48;;;;;;;1999.90;999.90;;;18.60;99.90;;;;;;5058829;28;20697;-83
2021/09/12 02:50:13;;;;;;;1999.90;999.90;;;18.60;99.90;;;;;;5060776;28;20194;-84
2021/09/12 02:52:39;;;;;;;1999.90;999.90;;;18.60;99.90;;;;;;5061471;28;20192;-84
2021/09/12 02:55:06;;;;;;;1999.90;999.90;;;18.60;99.90;;;;;;5062412;28;20722;-84
2021/09/12 02:57:32;;;;;;;1999.90;999.90;;;18.60;99.90;;;;;;5043285;28;20184;-84
2021/09/12 02:59:59;;;;;;;1999.90;999.90;;;18.60;99.90;;;;;;5062110;28;20828;-84
2021/09/12 03:02:25;;;;;;;1999.90;999.90;;;18.60;99.90;;;;;;5060361;28;20431;-84
2021/09/12 03:04:51;;;;;;;1999.90;999.90;;;18.60;99.90;;;;;;5061826;28;20403;-84
2021/09/12 03:07:17;;;;;;;1999.90;999.90;;;18.60;99.90;;;;;;5043431;28;20457;-84
2021/09/12 03:09:42;;;;;;;1999.90;999.90;;;18.60;99.90;;;;;;5064681;28;20403;-84
2021/09/12 03:12:08;;;;;;;1999.90;999.90;;;18.60;99.90;;;;;;5064832;28;20606;-84
2021/09/12 03:14:36;;;;;;;1999.90;999.90;;;18.60;99.90;;;;;;5046123;28;20176;-84
2021/09/12 03:17:02;;;;;;;1999.90;999.90;;;18.50;99.90;;;;;;5047453;28;20193;-84
2021/09/12 03:19:27;;;;;;;1999.90;999.90;;;18.40;99.90;;;;;;5065056;28;20406;-84
2021/09/12 03:24:21;;;;;;;1999.90;999.90;;;18.40;99.90;;;;;;5408790;23;20297;-87
2021/09/12 03:26:47;;;;;;;1999.90;999.90;;;18.40;99.90;;;;;;5081641;28;20434;-86
2021/09/12 03:29:12;;;;;;;1999.90;999.90;;;18.40;99.90;;;;;;5083273;28;20217;-86
2021/09/12 03:31:38;;;;;;;1999.90;999.90;;;18.30;99.90;;;;;;5083200;28;20180;-86
2021/09/12 03:34:04;;;;;;;1999.90;999.90;;;18.30;99.90;;;;;;5082771;28;20172;-86
2021/09/12 03:36:29;;;;;;;1999.90;999.90;;;18.30;99.90;;;;;;5083097;28;20196;-86
2021/09/12 03:38:55;;;;;;;1999.90;999.90;;;18.30;99.90;;;;;;5084136;28;20257;-86
2021/09/12 03:41:21;;;;;;;1999.90;999.90;;;18.30;99.90;;;;;;5083512;28;20167;-86
2021/09/12 03:43:46;;;;;;;1999.90;999.90;;;18.30;99.90;;;;;;5084360;28;20164;-84
2021/09/12 03:46:12;;;;;;;1999.90;999.90;;;18.30;99.90;;;;;;5084354;28;20211;-84
2021/09/12 03:48:38;;;;;;;1999.90;999.90;;;18.30;99.90;;;;;;5085337;28;20168;-84
2021/09/12 03:51:03;;;;;;;1999.90;999.90;;;18.20;99.90;;;;;;5083961;28;20263;-84
2021/09/12 03:53:29;;;;;;;1999.90;999.90;;;18.20;99.90;;;;;;5084318;28;20160;-84
2021/09/12 03:55:55;;;;;;;1999.90;999.90;;;18.30;99.90;;;;;;5084163;28;20187;-84
2021/09/12 03:58:20;;;;;;;1999.90;999.90;;;18.30;99.90;;;;;;5082806;28;20167;-84
2021/09/12 04:00:46;;;;;;;1999.90;999.90;;;18.20;99.90;;;;;;5082971;28;20167;-84
2021/09/12 04:03:12;;;;;;;1999.90;999.90;;;18.20;99.90;;;;;;5083144;28;20164;-83
2021/09/12 04:05:37;;;;;;;1999.90;999.90;;;18.10;99.90;;;;;;5083893;28;20175;-84
2021/09/12 04:08:03;;;;;;;1999.90;999.90;;;18.20;99.90;;;;;;5083535;28;20195;-84
2021/09/12 04:10:29;;;;;;;1999.90;999.90;;;18.10;99.90;;;;;;5084276;28;20160;-84
2021/09/12 04:12:59;;;;;;;1999.90;999.90;;;18.10;99.90;;;;;;5084268;28;20398;-84
2021/09/12 04:17:56;;;;;;;1999.90;999.90;;;18.00;99.90;;;;;;5266197;23;21016;-84
2021/09/12 04:20:22;;;;;;;1999.90;999.90;;;18.00;99.90;;;;;;5080733;28;20428;-84
2021/09/12 04:22:47;;;;;;;1999.90;999.90;;;18.00;99.90;;;;;;5081048;28;20164;-84
2021/09/12 04:25:16;;;;;;;1999.90;999.90;;;17.90;99.90;;;;;;5080078;28;20168;-84
2021/09/12 04:27:44;;;;;;;1999.90;999.90;;;17.90;99.90;;;;;;5079658;28;20554;-84
2021/09/12 04:30:10;;;;;;;1999.90;999.90;;;17.90;99.90;;;;;;5079246;28;20475;-84
2021/09/12 04:32:36;;;;;;;1999.90;999.90;;;18.00;99.90;;;;;;5078329;28;20406;-84
2021/09/12 04:35:05;;;;;;;1999.90;999.90;;;17.90;99.90;;;;;;5079730;28;20448;-84
2021/09/12 04:37:31;;;;;;;1999.90;999.90;;;17.90;99.90;;;;;;5080268;28;20191;-84
2021/09/12 04:39:56;;;;;;;1999.90;999.90;;;17.80;99.90;;;;;;5079328;28;20889;-84
2021/09/12 04:42:22;;;;;;;1999.90;999.90;;;17.80;99.90;;;;;;5078668;28;20184;-84
2021/09/12 04:44:48;;;;;;;1999.90;999.90;;;17.80;99.90;;;;;;5079430;28;20156;-84
2021/09/12 04:47:14;;;;;;;1999.90;999.90;;;17.80;99.90;;;;;;5078341;28;20187;-84
2021/09/12 04:49:40;;;;;;;1999.90;999.90;;;17.80;99.90;;;;;;5079188;28;20168;-84
2021/09/12 04:52:09;;;;;;;1999.90;999.90;;;17.70;99.90;;;;;;5077562;28;20179;-84
2021/09/12 04:54:39;;;;;;;1999.90;999.90;;;17.60;99.90;;;;;;5077967;28;20939;-84
2021/09/12 04:57:05;;;;;;;1999.90;999.90;;;17.60;99.90;;;;;;5077845;28;20510;-84
2021/09/12 04:59:33;;;;;;;1999.90;999.90;;;17.60;99.90;;;;;;5078933;28;20986;-84
2021/09/12 05:01:58;;;;;;;1999.90;999.90;;;17.60;99.90;;;;;;5077159;28;20176;-84
2021/09/12 05:04:24;;;;;;;1999.90;999.90;;;17.70;99.90;;;;;;5078082;28;20489;-83
2021/09/12 05:06:50;;;;;;;1999.90;999.90;;;17.70;99.90;;;;;;5079470;28;20266;-84
2021/09/12 05:09:15;;;;;;;1999.90;999.90;;;17.70;99.90;;;;;;5078656;28;20172;-84
2021/09/12 05:11:41;;;;;;;1999.90;999.90;;;17.60;99.90;;;;;;5078664;28;20170;-84
2021/09/12 05:14:07;;;;;;;1999.90;999.90;;;17.60;99.90;;;;;;5079513;28;20164;-84
2021/09/12 05:16:33;;;;;;;1999.90;999.90;;;17.60;99.90;;;;;;5078270;28;20203;-84
2021/09/12 05:18:58;;;;;;;1999.90;999.90;;;17.60;99.90;;;;;;5079644;28;20925;-84
2021/09/12 05:21:25;;;;;;;1999.90;999.90;;;17.60;99.90;;;;;;5078864;28;20527;-84
2021/09/12 05:23:51;;;;;;;1999.90;999.90;;;17.60;99.90;;;;;;5079792;28;20586;-84
2021/09/12 05:26:16;;;;;;;1999.90;999.90;;;17.60;99.90;;;;;;5078620;28;20426;-84
2021/09/12 05:28:42;;;;;;;1999.90;999.90;;;17.60;99.90;;;;;;5079411;28;20167;-83
2021/09/12 05:31:09;;;;;;;1999.90;999.90;;;17.50;99.90;;;;;;5077199;28;20176;-83
2021/09/12 05:33:35;;;;;;;1999.90;999.90;;;17.50;99.90;;;;;;5077976;28;20172;-84
2021/09/12 05:36:00;;;;;;;1999.90;999.90;;;17.50;99.90;;;;;;5077262;28;20454;-83
2021/09/12 05:38:32;;;;;;;1999.90;999.90;;;17.50;99.90;;;;;;5078653;28;20765;-83
2021/09/12 05:40:58;;;;;;;1999.90;999.90;;;17.50;99.90;;;;;;5077548;28;20182;-83
2021/09/12 05:43:31;;;;;;;1999.90;999.90;;;17.50;99.90;;;;;;5078287;28;20497;-83
2021/09/12 05:45:56;;;;;;;1999.90;999.90;;;17.50;99.90;;;;;;5080369;28;20172;-84
2021/09/12 05:48:22;;;;;;;1999.90;999.90;;;17.50;99.90;;;;;;5079693;28;20501;-84
2021/09/12 05:50:50;;;;;;;1999.90;999.90;;;17.50;99.90;;;;;;5080031;28;20172;-84
2021/09/12 05:53:18;;;;;;;1999.90;999.90;;;17.60;99.90;;;;;;5080548;28;20218;-84
2021/09/12 05:55:44;;;;;;;1999.90;999.90;;;17.60;99.90;;;;;;5078431;28;20461;-84
2021/09/12 05:58:10;;;;;;;1999.90;999.90;;;17.60;99.90;;;;;;5079419;28;20407;-84
2021/09/12 06:00:41;;;;;;;1999.90;999.90;;;17.70;99.90;;;;;;5080178;28;20451;-83
2021/09/12 06:03:07;;;;;;;1999.90;999.90;;;17.70;99.90;;;;;;5080153;28;20160;-84
2021/09/12 06:05:33;;;;;;;1999.90;999.90;;;17.70;99.90;;;;;;5080162;28;20402;-84
2021/09/12 06:07:58;;;;;;;1999.90;999.90;;;17.70;99.90;;;;;;5077350;28;20219;-84
2021/09/12 06:10:24;;;;;;;1999.90;999.90;;;17.70;99.90;;;;;;5079965;28;20174;-84
2021/09/12 06:12:50;;;;;;;1999.90;999.90;;;17.80;99.90;;;;;;5078990;28;20225;-84
2021/09/12 06:15:16;;;;;;;1999.90;999.90;;;17.80;99.90;;;;;;5079179;28;20245;-84
2021/09/12 06:17:41;;;;;;;1999.90;999.90;;;17.90;99.90;;;;;;5079133;28;20176;-83
2021/09/12 06:20:07;;;;;;;1999.90;999.90;;;17.80;99.90;;;;;;5079895;28;20390;-84
2021/09/12 06:22:33;;;;;;;1999.90;999.90;;;17.80;99.90;;;;;;5078555;28;20255;-84
2021/09/12 06:24:59;;;;;;;1999.90;999.90;;;17.80;99.90;;;;;;5078229;28;20430;-84
2021/09/12 06:27:24;;;;;;;1999.90;999.90;;;17.80;99.90;;;;;;5078056;28;20187;-84
2021/09/12 06:29:50;;;;;;;1999.90;999.90;;;17.80;99.90;;;;;;5077785;28;20693;-83
2021/09/12 06:32:16;;;;;;;1999.90;999.90;;;17.80;99.90;;;;;;5078923;28;20148;-84
2021/09/12 06:34:43;;;;;;;1999.90;999.90;;;17.90;99.90;;;;;;5078986;28;20225;-83
2021/09/12 06:37:14;;;;;;;1999.90;999.90;;;17.90;99.90;;;;;;5077270;28;20219;-84
2021/09/12 06:39:43;;;;;;;1999.90;999.90;;;18.00;99.90;;;;;;5079085;28;20406;-84
2021/09/12 06:42:11;;;;;;;1999.90;999.90;;;18.00;99.90;;;;;;5079725;28;20406;-84
2021/09/12 06:44:37;;;;;;;1999.90;999.90;;;18.00;99.90;;;;;;5079083;28;20402;-84
2021/09/12 06:47:05;;;;;;;1999.90;999.90;;;18.00;99.90;;;;;;5076709;28;20437;-85
2021/09/12 06:49:31;;;;;;;1999.90;999.90;;;18.00;99.90;;;;;;5086646;28;20498;-84
2021/09/12 06:51:57;;;;;;;1999.90;999.90;;;18.00;99.90;;;;;;5085406;28;20402;-84
2021/09/12 06:54:26;;;;;;;1999.90;999.90;;;18.10;99.90;;;;;;5079338;28;20172;-84
2021/09/12 06:57:24;;;;;;;1999.90;999.90;;;18.20;99.90;;;;;;5107006;23;20227;-86
2021/09/12 07:00:31;;;;;;;1999.90;999.90;;;18.20;99.90;;;;;;5076791;28;20385;-85
2021/09/12 07:13:17;;;;;;;1999.90;999.90;;;18.30;99.90;;;;;;4975444;28;20423;-86
2021/09/12 07:16:33;;;;;;;1999.90;999.90;;;18.40;99.90;;;;;;4955186;28;20882;-85
2021/09/12 07:19:41;;;;;;;1999.90;999.90;;;18.50;99.90;;;;;;4955733;29;20420;-84
2021/09/12 07:22:48;;;;;;;1999.90;999.90;;;18.50;99.90;;;;;;4943068;29;20424;-84
2021/09/12 07:35:33;;;;;;;1999.90;999.90;;;18.60;99.90;;;;;;5037296;28;20511;-84
2021/09/12 07:38:11;;;;;;;;;;;;;;;;;;;;;
2021/09/12 07:41:16;;;;;;;1999.90;999.90;;;18.50;99.90;;;;;;5056246;28;20424;-85
2021/09/12 07:43:55;;;;;;;1999.90;999.90;;;18.70;99.90;;;;;;5055754;28;20399;-85
2021/09/12 07:46:42;;;;;;;1999.90;999.90;;;18.80;99.90;;;;;;5045291;28;20476;-84
2021/09/12 07:51:34;;;;;;;1999.90;999.90;;;18.80;99.90;;;;;;5122962;23;20486;-85
2021/09/12 07:54:00;;;;;;;1999.90;999.90;;;18.90;99.90;;;;;;5040656;28;20403;-85
2021/09/12 07:56:26;;;;;;;1999.90;999.90;;;18.90;99.90;;;;;;5040411;28;20208;-85
2021/09/12 07:58:51;;;;;;;1999.90;999.90;;;18.90;99.90;;;;;;5058748;28;20210;-85
2021/09/12 08:01:17;;;;;;;1999.90;999.90;;;19.00;99.90;;;;;;5040384;28;20674;-85
2021/09/12 08:03:42;;;;;;;1999.90;999.90;;;19.00;99.90;;;;;;5058411;28;20244;-85
2021/09/12 08:06:08;;;;;;;1999.90;999.90;;;18.90;99.90;;;;;;5058651;28;20185;-85
2021/09/12 08:08:34;;;;;;;1999.90;999.90;;;19.10;99.90;;;;;;5057654;28;20350;-85
2021/09/12 08:10:59;;;;;;;1999.90;999.90;;;19.20;99.90;;;;;;5058455;28;20164;-86
2021/09/12 08:13:25;;;;;;;1999.90;999.90;;;19.30;99.90;;;;;;5058608;28;20174;-86
2021/09/12 08:15:51;;;;;;;1999.90;999.90;;;19.40;99.90;;;;;;5059874;28;20255;-86
2021/09/12 08:18:18;;;;;;;1999.90;999.90;;;19.40;99.90;;;;;;5058357;28;20169;-86
2021/09/12 08:20:44;;;;;;;1999.90;999.90;;;19.40;99.90;;;;;;5040782;28;20176;-85
2021/09/12 08:23:10;;;;;;;1999.90;999.90;;;19.50;99.90;;;;;;5040104;28;20403;-85
2021/09/12 08:25:36;;;;;;;1999.90;999.90;;;19.40;99.90;;;;;;5040009;28;20230;-85
2021/09/12 08:28:02;;;;;;;1999.90;999.90;;;19.40;99.90;;;;;;5041255;28;20755;-85
2021/09/12 08:30:27;;;;;;;1999.90;999.90;;;19.50;99.90;;;;;;5058740;28;20165;-86
2021/09/12 08:32:53;;;;;;;1999.90;999.90;;;19.50;99.90;;;;;;5058081;28;20199;-85
2021/09/12 08:35:18;;;;;;;1999.90;999.90;;;19.70;99.90;;;;;;5058906;28;20196;-86
2021/09/12 08:37:44;;;;;;;1999.90;999.90;;;19.80;99.90;;;;;;5058433;28;20236;-85
2021/09/12 08:40:10;;;;;;;1999.90;999.90;;;19.80;99.90;;;;;;5040837;28;20187;-86
2021/09/12 08:42:37;;;;;;;1999.90;999.90;;;19.90;99.90;;;;;;5040425;28;20172;-86
2021/09/12 08:45:03;;;;;;;1999.90;999.90;;;19.90;99.90;;;;;;5041134;28;20514;-85
2021/09/12 08:47:30;;;;;;;1999.90;999.90;;;19.90;99.90;;;;;;5059088;28;20447;-85
2021/09/12 08:49:55;;;;;;;1999.90;999.90;;;19.70;99.90;;;;;;5039466;28;20420;-85
2021/09/12 08:52:21;;;;;;;1999.90;999.90;;;19.70;99.90;;;;;;5058817;28;20434;-85
2021/09/12 08:54:47;;;;;;;1999.90;999.90;;;19.60;99.90;;;;;;5058695;28;20172;-85
2021/09/12 08:57:12;;;;;;;1999.90;999.90;;;19.60;99.90;;;;;;5040442;28;20298;-85
2021/09/12 08:59:38;;;;;;;1999.90;999.90;;;19.70;99.90;;;;;;5058169;28;20166;-85
2021/09/12 09:02:06;;;;;;;1999.90;999.90;;;19.70;99.90;;;;;;5058400;28;20380;-85
2021/09/12 09:04:33;;;;;;;1999.90;999.90;;;19.70;99.90;;;;;;5040173;28;20171;-85
2021/09/12 09:07:01;;;;;;;1999.90;999.90;;;19.80;99.90;;;;;;5057799;28;20466;-85
2021/09/12 09:09:41;;;;;;;1999.90;999.90;;;19.80;99.90;;;;;;5058364;28;20494;-86
2021/09/12 09:12:34;;;;;;;1999.90;999.90;;;19.80;99.90;;;;;;5039127;28;20494;-84
2021/09/12 09:15:01;;;;;;;1999.90;999.90;;;19.90;99.90;;;;;;5026682;28;20422;-85
2021/09/12 09:17:27;;;;;;;1999.90;999.90;;;19.90;99.90;;;;;;5038920;28;20454;-85
2021/09/12 09:19:53;;;;;;;1999.90;999.90;;;20.00;99.90;;;;;;5056610;28;20391;-85
2021/09/12 09:22:33;;;;;;;1999.90;999.90;;;20.20;99.90;;;;;;5039132;28;20167;-86
2021/09/12 09:25:10;;;;;;;1999.90;999.90;;;20.30;99.90;;;;;;5060345;28;20531;-87
2021/09/12 09:27:55;;;;;;;1999.90;999.90;;;20.20;99.90;;;;;;5059448;28;20419;-87
2021/09/12 09:30:20;;;;;;;1999.90;999.90;;;20.20;99.90;;;;;;5039201;28;20408;-86
2021/09/12 09:32:46;;;;;;;1999.90;999.90;;;20.30;99.90;;;;;;5060390;28;20409;-87
2021/09/12 09:35:20;;;;;;;1999.90;999.90;;;20.40;99.90;;;;;;5044734;28;20200;-86
2021/09/12 09:37:47;;;;;;;1999.90;999.90;;;20.40;99.90;;;;;;5059118;28;20207;-85
2021/09/12 09:40:13;;;;;;;1999.90;999.90;;;20.40;99.90;;;;;;5060576;28;20456;-86
2021/09/12 09:42:44;;;;;;;1999.90;999.90;;;20.50;99.90;;;;;;5041825;28;20439;-87
2021/09/12 09:45:15;;;;;;;1999.90;999.90;;;20.50;99.90;;;;;;5059288;28;20502;-86
2021/09/12 09:47:49;;;;;;;1999.90;999.90;;;20.60;99.90;;;;;;5041421;28;20435;-87
2021/09/12 09:50:19;;;;;;;1999.90;999.90;;;20.60;99.90;;;;;;5061223;28;20442;-87
2021/09/12 09:52:52;;;;;;;1999.90;999.90;;;20.80;99.90;;;;;;5043651;28;20427;-87
2021/09/12 09:55:20;;;;;;;1999.90;999.90;;;21.00;99.90;;;;;;5042398;28;20447;-87
2021/09/12 09:57:48;;;;;;;1999.90;999.90;;;21.20;99.90;;;;;;5042699;28;20442;-86
2021/09/12 10:00:16;;;;;;;1999.90;999.90;;;21.20;99.90;;;;;;5042236;28;20412;-87
2021/09/12 10:02:42;;;;;;;1999.90;999.90;;;21.30;99.30;;;;;;5043682;28;20411;-86
2021/09/12 10:05:10;;;;;;;1999.90;999.90;;;21.40;98.50;;;;;;5040705;28;20994;-87
2021/09/12 10:07:48;;;;;;;1999.90;999.90;;;21.40;92.90;;;;;;5063105;28;20195;-86
2021/09/12 10:10:17;;;;;;;1999.90;999.90;;;21.40;96.80;;;;;;5058011;28;20387;-87
2021/09/12 10:12:59;;;;;;;1999.90;999.90;;;21.40;96.60;;;;;;5038386;28;20407;-87
2021/09/12 10:15:34;;;;;;;1999.90;999.90;;;21.50;99.90;;;;;;5056727;28;20921;-87
2021/09/12 10:18:01;;;;;;;1999.90;999.90;;;21.50;98.40;;;;;;5056905;28;20461;-87
2021/09/12 10:20:29;;;;;;;1999.90;999.90;;;21.50;96.80;;;;;;5056532;28;20459;-87
2021/09/12 10:22:57;;;;;;;1999.90;999.90;;;21.50;95.10;;;;;;5056397;28;20376;-87
2021/09/12 10:25:48;;;;;;;1999.90;999.90;;;21.60;94.50;;;;;;5058167;28;20509;-86
2021/09/12 10:28:26;;;;;;;1999.90;999.90;;;21.50;92.70;;;;;;5058118;28;20387;-87
2021/09/12 10:31:24;;;;;;;1999.90;999.90;;;21.60;92.50;;;;;;5040468;28;20410;-86
2021/09/12 10:34:11;;;;;;;1999.90;999.90;;;21.70;91.30;;;;;;5047835;28;20419;-86
2021/09/12 10:36:39;;;;;;;1999.90;999.90;;;21.80;87.70;;;;;;5058174;28;20502;-86
2021/09/12 10:39:23;;;;;;;1999.90;999.90;;;22.00;86.10;;;;;;5057119;28;20435;-86
2021/09/12 10:42:14;;;;;;;1999.90;999.90;;;22.20;85.30;;;;;;5039331;28;20406;-86
2021/09/12 10:44:40;;;;;;;1999.90;999.90;;;22.40;78.60;;;;;;5039504;28;20418;-86
2021/09/12 10:47:07;;;;;;;1999.90;999.90;;;22.40;72.40;;;;;;5040530;28;20481;-86
2021/09/12 10:49:32;;;;;;;1999.90;999.90;;;22.50;76.00;;;;;;5062661;28;20421;-87
2021/09/12 10:52:27;;;;;;;1999.90;999.90;;;22.50;76.50;;;;;;5061999;28;20399;-86
2021/09/12 10:55:07;;;;;;;1999.90;999.90;;;22.90;67.20;;;;;;5057828;28;20184;-87
2021/09/12 10:57:36;;;;;;;1999.90;999.90;;;23.20;57.30;;;;;;5039863;28;20438;-87
2021/09/12 11:00:07;;;;;;;1999.90;999.90;;;23.40;56.20;;;;;;5057868;28;20396;-86
2021/09/12 11:02:33;;;;;;;1999.90;999.90;;;23.50;36.60;;;;;;5058028;28;20756;-87
2021/09/12 11:04:59;;;;;;;1999.90;999.90;;;23.30;45.20;;;;;;5040926;28;20867;-86
2021/09/12 11:07:25;;;;;;;1999.90;999.90;;;23.00;36.60;;;;;;5058685;28;20430;-86
2021/09/12 11:09:50;;;;;;;1999.90;999.90;;;23.00;54.70;;;;;;5059498;28;20161;-86
2021/09/12 11:12:16;;;;;;;1999.90;999.90;;;22.70;43.80;;;;;;5057673;28;20567;-87
2021/09/12 11:14:42;;;;;;;1999.90;999.90;;;22.60;57.80;;;;;;5057204;28;20173;-86
2021/09/12 11:17:10;;;;;;;1999.90;999.90;;;22.60;52.50;;;;;;5039448;28;20292;-86
2021/09/12 11:19:37;;;;;;;1999.90;999.90;;;22.60;44.60;;;;;;5057761;28;20169;-87
2021/09/12 11:22:05;;;;;;;1999.90;999.90;;;22.40;36.40;;;;;;5058633;28;20407;-87
2021/09/12 11:24:31;;;;;;;1999.90;999.90;;;22.50;30.90;;;;;;5058290;28;20433;-87
2021/09/12 11:27:02;;;;;;;1999.90;999.90;;;22.80;34.90;;;;;;5039754;28;20427;-86
2021/09/12 11:29:39;;;;;;;1999.90;999.90;;;23.20;37.00;;;;;;5040663;28;20187;-87
2021/09/12 11:32:18;;;;;;;1999.90;999.90;;;23.30;17.90;;;;;;5042910;28;20411;-87
2021/09/12 11:34:46;;;;;;;1999.90;999.90;;;23.50;9.10;;;;;;5060335;28;20396;-87
2021/09/12 11:37:18;;;;;;;1999.90;999.90;;;23.30;6.40;;;;;;5060406;28;20424;-86
2021/09/12 11:39:46;;;;;;;1999.90;999.90;;;23.20;10.60;;;;;;5060732;28;20812;-87
2021/09/12 11:42:18;;;;;;;1999.90;999.90;;;23.20;13.60;;;;;;5043180;28;20407;-87
2021/09/12 11:44:47;;;;;;;1999.90;999.90;;;23.40;13.10;;;;;;5041739;28;20498;-87
2021/09/12 11:47:15;;;;;;;1999.90;999.90;;;23.50;12.10;;;;;;5060167;28;20926;-86
2021/09/12 11:49:42;;;;;;;1999.90;999.90;;;23.60;11.60;;;;;;5060575;28;20437;-86
2021/09/12 11:52:09;;;;;;;1999.90;999.90;;;23.70;6.70;;;;;;5059781;28;20404;-86
2021/09/12 11:54:35;;;;;;;1999.90;999.90;;;23.60;2.90;;;;;;5043441;28;20419;-87
2021/09/12 11:57:07;;;;;;;1999.90;999.90;;;23.60;5.60;;;;;;5042380;28;20451;-86
2021/09/12 11:59:37;;;;;;;1999.90;999.90;;;23.80;9.30;;;;;;5041776;28;20458;-87
2021/09/12 12:02:03;;;;;;;1999.90;999.90;;;24.00;5.60;;;;;;5060000;28;20902;-87
2021/09/12 12:04:31;;;;;;;1999.90;999.90;;;24.30;7.00;;;;;;5041907;28;20395;-86
2021/09/12 12:07:00;;;;;;;1999.90;999.90;;;24.40;1.60;;;;;;5041350;28;20509;-87
2021/09/12 12:09:48;;;;;;;1999.90;999.90;;;24.50;1.00;;;;;;5041068;28;20411;-87
2021/09/12 12:12:17;;;;;;;1999.90;999.90;;;24.70;1.00;;;;;;5058622;28;20376;-87
2021/09/12 12:15:00;;;;;;;1999.90;999.90;;;24.80;1.00;;;;;;5059079;28;20399;-86
2021/09/12 12:17:27;;;;;;;1999.90;999.90;;;24.80;1.00;;;;;;5040428;28;20435;-87
2021/09/12 12:19:58;;;;;;;1999.90;999.90;;;24.80;1.00;;;;;;5057761;28;20400;-87
2021/09/12 12:22:35;;;;;;;1999.90;999.90;;;24.60;1.00;;;;;;5058632;28;20388;-86
2021/09/12 12:25:04;;;;;;;1999.90;999.90;;;24.40;1.00;;;;;;5040946;28;20395;-87
2021/09/12 12:27:39;;;;;;;1999.90;999.90;;;24.20;1.00;;;;;;5058492;28;20960;-87
2021/09/12 12:30:09;;;;;;;1999.90;999.90;;;24.40;1.00;;;;;;5058748;28;20439;-87
2021/09/12 12:32:35;;;;;;;1999.90;999.90;;;24.40;1.00;;;;;;5056199;28;20482;-87
2021/09/12 12:35:13;;;;;;;1999.90;999.90;;;24.40;1.00;;;;;;5039454;28;20926;-85
2021/09/12 12:37:43;;;;;;;1999.90;999.90;;;24.60;1.00;;;;;;5040271;28;20432;-85
2021/09/12 12:40:20;;;;;;;1999.90;999.90;;;24.60;1.00;;;;;;5038976;28;20407;-85
2021/09/12 12:42:49;;;;;;;1999.90;999.90;;;24.80;1.00;;;;;;5058217;28;20400;-86